sensor_id;sensor_type;location;lat;lon;timestamp;P1;durP1;ratioP1;P2;durP2;ratioP2
12556;SDS011;6344;49.932;8.308;2023-02-04T00:01:16;5.17;;;3.37;;
12556;SDS011;6344;49.932;8.308;2023-02-04T00:03:43;3.50;;;2.60;;
12556;SDS011;6344;49.932;8.308;2023-02-04T00:06:10;4.60;;;3.60;;
12556;SDS011;6344;49.932;8.308;2023-02-04T00:08:36;6.43;;;3.30;;
12556;SDS011;6344;49.932;8.308;2023-02-04T00:11:03;8.67;;;3.10;;
12556;SDS011;6344;49.932;8.308;2023-02-04T00:13:31;6.40;;;3.30;;
12556;SDS011;6344;49.932;8.308;2023-02-04T00:15:58;6.07;;;3.90;;
12556;SDS011;6344;49.932;8.308;2023-02-04T00:18:24;8.00;;;3.40;;
12556;SDS011;6344;49.932;8.308;2023-02-04T00:20:51;6.30;;;2.50;;
12556;SDS011;6344;49.932;8.308;2023-02-04T00:23:18;5.30;;;2.53;;
12556;SDS011;6344;49.932;8.308;2023-02-04T00:25:44;8.13;;;2.80;;
12556;SDS011;6344;49.932;8.308;2023-02-04T00:28:11;6.87;;;2.00;;
12556;SDS011;6344;49.932;8.308;2023-02-04T00:30:39;4.60;;;2.60;;
12556;SDS011;6344;49.932;8.308;2023-02-04T00:33:06;8.63;;;3.73;;
12556;SDS011;6344;49.932;8.308;2023-02-04T00:35:32;12.40;;;3.17;;
12556;SDS011;6344;49.932;8.308;2023-02-04T00:38:01;5.17;;;4.00;;
12556;SDS011;6344;49.932;8.308;2023-02-04T00:40:27;7.87;;;4.07;;
12556;SDS011;6344;49.932;8.308;2023-02-04T00:42:54;5.23;;;3.13;;
12556;SDS011;6344;49.932;8.308;2023-02-04T00:45:21;4.77;;;3.07;;
12556;SDS011;6344;49.932;8.308;2023-02-04T00:47:49;10.80;;;4.27;;
12556;SDS011;6344;49.932;8.308;2023-02-04T00:50:15;1.80;;;1.37;;
12556;SDS011;6344;49.932;8.308;2023-02-04T00:52:42;9.80;;;3.73;;
12556;SDS011;6344;49.932;8.308;2023-02-04T00:55:09;6.03;;;2.57;;
12556;SDS011;6344;49.932;8.308;2023-02-04T00:57:36;3.53;;;1.87;;
12556;SDS011;6344;49.932;8.308;2023-02-04T01:00:04;4.00;;;2.43;;
12556;SDS011;6344;49.932;8.308;2023-02-04T01:02:31;2.83;;;1.90;;
12556;SDS011;6344;49.932;8.308;2023-02-04T01:04:59;5.23;;;3.33;;
12556;SDS011;6344;49.932;8.308;2023-02-04T01:07:26;5.07;;;2.47;;
12556;SDS011;6344;49.932;8.308;2023-02-04T01:09:52;9.90;;;2.50;;
12556;SDS011;6344;49.932;8.308;2023-02-04T01:12:19;7.70;;;2.67;;
12556;SDS011;6344;49.932;8.308;2023-02-04T01:14:50;5.17;;;2.67;;
12556;SDS011;6344;49.932;8.308;2023-02-04T01:17:16;7.03;;;2.57;;
12556;SDS011;6344;49.932;8.308;2023-02-04T01:19:43;5.93;;;2.80;;
12556;SDS011;6344;49.932;8.308;2023-02-04T01:22:12;4.40;;;2.00;;
12556;SDS011;6344;49.932;8.308;2023-02-04T01:24:38;6.17;;;2.30;;
12556;SDS011;6344;49.932;8.308;2023-02-04T01:27:05;10.97;;;3.80;;
12556;SDS011;6344;49.932;8.308;2023-02-04T01:29:32;6.77;;;2.80;;
12556;SDS011;6344;49.932;8.308;2023-02-04T01:31:58;10.47;;;3.60;;
12556;SDS011;6344;49.932;8.308;2023-02-04T01:34:25;7.80;;;2.40;;
12556;SDS011;6344;49.932;8.308;2023-02-04T01:36:51;6.10;;;3.10;;
12556;SDS011;6344;49.932;8.308;2023-02-04T01:39:19;10.67;;;3.90;;
12556;SDS011;6344;49.932;8.308;2023-02-04T01:41:46;8.63;;;3.90;;
12556;SDS011;6344;49.932;8.308;2023-02-04T01:44:13;9.50;;;3.10;;
12556;SDS011;6344;49.932;8.308;2023-02-04T01:46:39;3.27;;;2.50;;
12556;SDS011;6344;49.932;8.308;2023-02-04T01:49:06;14.73;;;4.83;;
12556;SDS011;6344;49.932;8.308;2023-02-04T01:51:34;5.53;;;2.33;;
12556;SDS011;6344;49.932;8.308;2023-02-04T01:54:01;13.80;;;3.33;;
12556;SDS011;6344;49.932;8.308;2023-02-04T01:56:30;6.00;;;3.00;;
12556;SDS011;6344;49.932;8.308;2023-02-04T01:58:57;6.83;;;3.17;;
12556;SDS011;6344;49.932;8.308;2023-02-04T02:01:34;9.03;;;4.23;;
12556;SDS011;6344;49.932;8.308;2023-02-04T02:04:02;8.77;;;4.43;;
12556;SDS011;6344;49.932;8.308;2023-02-04T02:06:29;9.80;;;5.40;;
12556;SDS011;6344;49.932;8.308;2023-02-04T02:08:56;7.23;;;5.30;;
12556;SDS011;6344;49.932;8.308;2023-02-04T02:11:23;11.83;;;5.07;;
12556;SDS011;6344;49.932;8.308;2023-02-04T02:13:52;17.10;;;6.70;;
12556;SDS011;6344;49.932;8.308;2023-02-04T02:16:19;9.23;;;4.47;;
12556;SDS011;6344;49.932;8.308;2023-02-04T02:18:45;9.17;;;4.90;;
12556;SDS011;6344;49.932;8.308;2023-02-04T02:21:13;7.07;;;4.60;;
12556;SDS011;6344;49.932;8.308;2023-02-04T02:23:47;5.80;;;4.63;;
12556;SDS011;6344;49.932;8.308;2023-02-04T02:26:15;13.57;;;6.43;;
12556;SDS011;6344;49.932;8.308;2023-02-04T02:28:45;9.10;;;4.50;;
12556;SDS011;6344;49.932;8.308;2023-02-04T02:31:12;11.87;;;5.50;;
12556;SDS011;6344;49.932;8.308;2023-02-04T02:33:39;7.53;;;4.40;;
12556;SDS011;6344;49.932;8.308;2023-02-04T02:36:06;9.53;;;4.70;;
12556;SDS011;6344;49.932;8.308;2023-02-04T02:38:33;12.50;;;5.67;;
12556;SDS011;6344;49.932;8.308;2023-02-04T02:41:01;11.37;;;5.43;;
12556;SDS011;6344;49.932;8.308;2023-02-04T02:43:29;14.93;;;5.70;;
12556;SDS011;6344;49.932;8.308;2023-02-04T02:45:57;11.90;;;5.70;;
12556;SDS011;6344;49.932;8.308;2023-02-04T02:48:25;10.80;;;5.70;;
12556;SDS011;6344;49.932;8.308;2023-02-04T02:50:52;6.87;;;4.77;;
12556;SDS011;6344;49.932;8.308;2023-02-04T02:53:19;11.57;;;5.57;;
12556;SDS011;6344;49.932;8.308;2023-02-04T02:55:46;9.80;;;5.80;;
12556;SDS011;6344;49.932;8.308;2023-02-04T02:58:15;9.47;;;4.60;;
12556;SDS011;6344;49.932;8.308;2023-02-04T03:00:48;9.17;;;5.83;;
12556;SDS011;6344;49.932;8.308;2023-02-04T03:03:16;11.17;;;6.27;;
12556;SDS011;6344;49.932;8.308;2023-02-04T03:05:46;9.97;;;6.20;;
12556;SDS011;6344;49.932;8.308;2023-02-04T03:08:17;10.47;;;6.90;;
12556;SDS011;6344;49.932;8.308;2023-02-04T03:10:45;13.63;;;6.20;;
12556;SDS011;6344;49.932;8.308;2023-02-04T03:13:13;10.93;;;6.80;;
12556;SDS011;6344;49.932;8.308;2023-02-04T03:15:42;15.23;;;6.20;;
12556;SDS011;6344;49.932;8.308;2023-02-04T03:18:11;10.33;;;6.00;;
12556;SDS011;6344;49.932;8.308;2023-02-04T03:20:39;12.83;;;6.43;;
12556;SDS011;6344;49.932;8.308;2023-02-04T03:23:07;11.10;;;6.00;;
12556;SDS011;6344;49.932;8.308;2023-02-04T03:25:34;7.47;;;5.60;;
12556;SDS011;6344;49.932;8.308;2023-02-04T03:28:00;10.67;;;5.60;;
12556;SDS011;6344;49.932;8.308;2023-02-04T03:30:28;14.30;;;6.43;;
12556;SDS011;6344;49.932;8.308;2023-02-04T03:32:55;10.63;;;6.10;;
12556;SDS011;6344;49.932;8.308;2023-02-04T03:35:22;9.97;;;5.70;;
12556;SDS011;6344;49.932;8.308;2023-02-04T03:44:33;8.70;;;5.93;;
12556;SDS011;6344;49.932;8.308;2023-02-04T03:47:00;10.20;;;5.53;;
12556;SDS011;6344;49.932;8.308;2023-02-04T03:49:27;9.43;;;6.40;;
12556;SDS011;6344;49.932;8.308;2023-02-04T03:51:56;8.73;;;3.53;;
12556;SDS011;6344;49.932;8.308;2023-02-04T03:54:23;10.00;;;5.33;;
12556;SDS011;6344;49.932;8.308;2023-02-04T03:56:49;10.67;;;5.90;;
12556;SDS011;6344;49.932;8.308;2023-02-04T03:59:16;8.97;;;5.30;;
12556;SDS011;6344;49.932;8.308;2023-02-04T04:01:43;10.03;;;6.87;;
12556;SDS011;6344;49.932;8.308;2023-02-04T04:04:11;13.47;;;6.00;;
12556;SDS011;6344;49.932;8.308;2023-02-04T04:06:37;9.30;;;5.87;;
12556;SDS011;6344;49.932;8.308;2023-02-04T04:09:04;11.50;;;6.33;;
12556;SDS011;6344;49.932;8.308;2023-02-04T04:11:30;13.77;;;6.40;;
12556;SDS011;6344;49.932;8.308;2023-02-04T04:13:57;15.03;;;5.17;;
12556;SDS011;6344;49.932;8.308;2023-02-04T04:16:25;7.40;;;5.20;;
12556;SDS011;6344;49.932;8.308;2023-02-04T04:18:51;16.40;;;6.43;;
12556;SDS011;6344;49.932;8.308;2023-02-04T04:21:19;10.20;;;6.20;;
12556;SDS011;6344;49.932;8.308;2023-02-04T04:23:46;14.83;;;6.90;;
12556;SDS011;6344;49.932;8.308;2023-02-04T04:26:13;14.70;;;5.80;;
12556;SDS011;6344;49.932;8.308;2023-02-04T04:28:39;18.93;;;6.30;;
12556;SDS011;6344;49.932;8.308;2023-02-04T04:31:06;7.80;;;5.73;;
12556;SDS011;6344;49.932;8.308;2023-02-04T04:33:34;12.70;;;6.90;;
12556;SDS011;6344;49.932;8.308;2023-02-04T04:36:00;12.17;;;6.90;;
12556;SDS011;6344;49.932;8.308;2023-02-04T04:38:28;13.10;;;6.33;;
12556;SDS011;6344;49.932;8.308;2023-02-04T04:40:55;11.43;;;6.50;;
12556;SDS011;6344;49.932;8.308;2023-02-04T04:43:22;17.57;;;6.67;;
12556;SDS011;6344;49.932;8.308;2023-02-04T04:45:48;13.63;;;7.17;;
12556;SDS011;6344;49.932;8.308;2023-02-04T04:48:15;12.40;;;7.03;;
12556;SDS011;6344;49.932;8.308;2023-02-04T04:50:42;15.33;;;7.07;;
12556;SDS011;6344;49.932;8.308;2023-02-04T04:53:08;17.20;;;6.40;;
12556;SDS011;6344;49.932;8.308;2023-02-04T04:55:37;12.53;;;5.87;;
12556;SDS011;6344;49.932;8.308;2023-02-04T04:58:04;18.00;;;7.90;;
12556;SDS011;6344;49.932;8.308;2023-02-04T05:00:31;15.10;;;6.80;;
12556;SDS011;6344;49.932;8.308;2023-02-04T05:02:58;14.07;;;6.73;;
12556;SDS011;6344;49.932;8.308;2023-02-04T05:05:25;12.10;;;5.77;;
12556;SDS011;6344;49.932;8.308;2023-02-04T05:07:52;15.67;;;7.27;;
12556;SDS011;6344;49.932;8.308;2023-02-04T05:10:19;13.40;;;7.23;;
12556;SDS011;6344;49.932;8.308;2023-02-04T05:12:47;15.47;;;6.97;;
12556;SDS011;6344;49.932;8.308;2023-02-04T05:15:13;10.00;;;5.93;;
12556;SDS011;6344;49.932;8.308;2023-02-04T05:17:40;13.13;;;6.40;;
12556;SDS011;6344;49.932;8.308;2023-02-04T05:20:07;15.23;;;6.80;;
12556;SDS011;6344;49.932;8.308;2023-02-04T05:22:34;13.23;;;5.80;;
12556;SDS011;6344;49.932;8.308;2023-02-04T05:25:01;10.97;;;6.10;;
12556;SDS011;6344;49.932;8.308;2023-02-04T05:27:28;16.77;;;6.70;;
12556;SDS011;6344;49.932;8.308;2023-02-04T05:29:55;15.80;;;7.80;;
12556;SDS011;6344;49.932;8.308;2023-02-04T05:32:22;14.50;;;6.47;;
12556;SDS011;6344;49.932;8.308;2023-02-04T05:34:49;10.00;;;5.67;;
12556;SDS011;6344;49.932;8.308;2023-02-04T05:37:15;17.53;;;6.83;;
12556;SDS011;6344;49.932;8.308;2023-02-04T05:39:44;13.13;;;5.73;;
12556;SDS011;6344;49.932;8.308;2023-02-04T05:42:11;10.83;;;6.20;;
12556;SDS011;6344;49.932;8.308;2023-02-04T05:44:38;14.00;;;6.00;;
12556;SDS011;6344;49.932;8.308;2023-02-04T05:47:06;18.00;;;6.13;;
12556;SDS011;6344;49.932;8.308;2023-02-04T05:49:32;16.63;;;6.20;;
12556;SDS011;6344;49.932;8.308;2023-02-04T05:51:59;15.43;;;7.00;;
12556;SDS011;6344;49.932;8.308;2023-02-04T05:54:26;12.67;;;6.10;;
12556;SDS011;6344;49.932;8.308;2023-02-04T05:56:52;13.43;;;6.37;;
12556;SDS011;6344;49.932;8.308;2023-02-04T05:59:19;14.40;;;6.17;;
12556;SDS011;6344;49.932;8.308;2023-02-04T06:01:46;19.40;;;5.97;;
12556;SDS011;6344;49.932;8.308;2023-02-04T06:04:14;10.03;;;4.87;;
12556;SDS011;6344;49.932;8.308;2023-02-04T06:06:40;15.40;;;5.97;;
12556;SDS011;6344;49.932;8.308;2023-02-04T06:09:07;14.07;;;4.90;;
12556;SDS011;6344;49.932;8.308;2023-02-04T06:11:34;9.43;;;4.60;;
12556;SDS011;6344;49.932;8.308;2023-02-04T06:14:01;13.33;;;6.10;;
12556;SDS011;6344;49.932;8.308;2023-02-04T06:16:27;18.17;;;5.50;;
12556;SDS011;6344;49.932;8.308;2023-02-04T06:18:54;14.10;;;5.57;;
12556;SDS011;6344;49.932;8.308;2023-02-04T06:21:22;18.97;;;7.37;;
12556;SDS011;6344;49.932;8.308;2023-02-04T06:23:49;10.10;;;5.47;;
12556;SDS011;6344;49.932;8.308;2023-02-04T06:26:15;21.73;;;7.30;;
12556;SDS011;6344;49.932;8.308;2023-02-04T06:28:42;14.07;;;5.57;;
12556;SDS011;6344;49.932;8.308;2023-02-04T06:31:08;19.60;;;6.80;;
12556;SDS011;6344;49.932;8.308;2023-02-04T06:33:35;17.80;;;6.10;;
12556;SDS011;6344;49.932;8.308;2023-02-04T06:36:02;18.70;;;7.20;;
12556;SDS011;6344;49.932;8.308;2023-02-04T06:38:30;15.20;;;6.73;;
12556;SDS011;6344;49.932;8.308;2023-02-04T06:40:56;19.33;;;6.83;;
12556;SDS011;6344;49.932;8.308;2023-02-04T06:43:23;14.67;;;5.60;;
12556;SDS011;6344;49.932;8.308;2023-02-04T06:45:51;12.67;;;5.53;;
12556;SDS011;6344;49.932;8.308;2023-02-04T06:48:18;17.83;;;6.87;;
12556;SDS011;6344;49.932;8.308;2023-02-04T06:50:45;11.70;;;6.50;;
12556;SDS011;6344;49.932;8.308;2023-02-04T06:53:11;31.80;;;9.13;;
12556;SDS011;6344;49.932;8.308;2023-02-04T06:55:39;11.53;;;5.90;;
12556;SDS011;6344;49.932;8.308;2023-02-04T06:58:06;17.30;;;6.70;;
12556;SDS011;6344;49.932;8.308;2023-02-04T07:00:33;23.30;;;7.50;;
12556;SDS011;6344;49.932;8.308;2023-02-04T07:03:00;17.73;;;8.23;;
12556;SDS011;6344;49.932;8.308;2023-02-04T07:05:26;14.10;;;6.00;;
12556;SDS011;6344;49.932;8.308;2023-02-04T07:07:53;15.40;;;6.90;;
12556;SDS011;6344;49.932;8.308;2023-02-04T07:10:20;12.83;;;6.93;;
12556;SDS011;6344;49.932;8.308;2023-02-04T07:12:47;15.87;;;6.23;;
12556;SDS011;6344;49.932;8.308;2023-02-04T07:15:14;19.80;;;6.47;;
12556;SDS011;6344;49.932;8.308;2023-02-04T07:17:41;17.53;;;6.63;;
12556;SDS011;6344;49.932;8.308;2023-02-04T07:20:08;16.10;;;6.23;;
12556;SDS011;6344;49.932;8.308;2023-02-04T07:22:35;18.63;;;6.30;;
12556;SDS011;6344;49.932;8.308;2023-02-04T07:25:02;20.93;;;6.30;;
12556;SDS011;6344;49.932;8.308;2023-02-04T07:27:29;28.60;;;7.93;;
12556;SDS011;6344;49.932;8.308;2023-02-04T07:29:56;17.70;;;6.33;;
12556;SDS011;6344;49.932;8.308;2023-02-04T07:32:23;19.50;;;7.30;;
12556;SDS011;6344;49.932;8.308;2023-02-04T07:34:51;14.03;;;7.33;;
12556;SDS011;6344;49.932;8.308;2023-02-04T07:37:18;16.73;;;8.07;;
12556;SDS011;6344;49.932;8.308;2023-02-04T07:39:46;20.20;;;8.40;;
12556;SDS011;6344;49.932;8.308;2023-02-04T07:42:13;20.70;;;8.63;;
12556;SDS011;6344;49.932;8.308;2023-02-04T07:44:40;10.60;;;6.70;;
12556;SDS011;6344;49.932;8.308;2023-02-04T07:47:07;13.13;;;8.00;;
12556;SDS011;6344;49.932;8.308;2023-02-04T07:49:34;15.87;;;8.53;;
12556;SDS011;6344;49.932;8.308;2023-02-04T07:52:01;13.30;;;6.67;;
12556;SDS011;6344;49.932;8.308;2023-02-04T07:54:27;13.00;;;7.20;;
12556;SDS011;6344;49.932;8.308;2023-02-04T07:56:54;14.70;;;6.13;;
12556;SDS011;6344;49.932;8.308;2023-02-04T07:59:20;21.90;;;7.17;;
12556;SDS011;6344;49.932;8.308;2023-02-04T08:01:47;12.90;;;6.20;;
12556;SDS011;6344;49.932;8.308;2023-02-04T08:04:15;17.97;;;7.53;;
12556;SDS011;6344;49.932;8.308;2023-02-04T08:06:42;14.77;;;6.60;;
12556;SDS011;6344;49.932;8.308;2023-02-04T08:09:08;13.43;;;5.40;;
12556;SDS011;6344;49.932;8.308;2023-02-04T08:11:35;18.63;;;7.27;;
12556;SDS011;6344;49.932;8.308;2023-02-04T08:14:01;21.77;;;7.20;;
12556;SDS011;6344;49.932;8.308;2023-02-04T08:16:28;13.77;;;6.23;;
12556;SDS011;6344;49.932;8.308;2023-02-04T08:18:55;19.53;;;6.70;;
12556;SDS011;6344;49.932;8.308;2023-02-04T08:21:23;17.03;;;6.40;;
12556;SDS011;6344;49.932;8.308;2023-02-04T08:23:49;13.03;;;6.10;;
12556;SDS011;6344;49.932;8.308;2023-02-04T08:26:16;24.33;;;7.83;;
12556;SDS011;6344;49.932;8.308;2023-02-04T08:28:43;16.70;;;5.97;;
12556;SDS011;6344;49.932;8.308;2023-02-04T08:31:09;20.77;;;6.83;;
12556;SDS011;6344;49.932;8.308;2023-02-04T08:33:36;18.90;;;6.60;;
12556;SDS011;6344;49.932;8.308;2023-02-04T08:36:04;15.70;;;6.10;;
12556;SDS011;6344;49.932;8.308;2023-02-04T08:38:32;19.20;;;5.83;;
12556;SDS011;6344;49.932;8.308;2023-02-04T08:40:59;13.63;;;5.13;;
12556;SDS011;6344;49.932;8.308;2023-02-04T08:43:26;12.77;;;5.77;;
12556;SDS011;6344;49.932;8.308;2023-02-04T08:45:53;18.63;;;6.17;;
12556;SDS011;6344;49.932;8.308;2023-02-04T08:48:19;15.57;;;6.53;;
12556;SDS011;6344;49.932;8.308;2023-02-04T08:50:46;27.17;;;6.30;;
12556;SDS011;6344;49.932;8.308;2023-02-04T08:53:12;19.27;;;6.53;;
12556;SDS011;6344;49.932;8.308;2023-02-04T08:55:40;14.10;;;5.67;;
12556;SDS011;6344;49.932;8.308;2023-02-04T08:58:07;11.37;;;5.70;;
12556;SDS011;6344;49.932;8.308;2023-02-04T09:00:34;23.00;;;7.93;;
12556;SDS011;6344;49.932;8.308;2023-02-04T09:03:00;9.80;;;6.43;;
12556;SDS011;6344;49.932;8.308;2023-02-04T09:05:27;19.77;;;5.80;;
12556;SDS011;6344;49.932;8.308;2023-02-04T09:07:54;13.83;;;5.73;;
12556;SDS011;6344;49.932;8.308;2023-02-04T09:10:20;16.17;;;7.53;;
12556;SDS011;6344;49.932;8.308;2023-02-04T09:12:48;22.23;;;6.33;;
12556;SDS011;6344;49.932;8.308;2023-02-04T09:15:19;16.77;;;5.20;;
12556;SDS011;6344;49.932;8.308;2023-02-04T09:17:47;9.53;;;4.77;;
12556;SDS011;6344;49.932;8.308;2023-02-04T09:20:14;13.80;;;5.60;;
12556;SDS011;6344;49.932;8.308;2023-02-04T09:22:40;14.00;;;5.43;;
12556;SDS011;6344;49.932;8.308;2023-02-04T09:25:07;18.40;;;6.87;;
12556;SDS011;6344;49.932;8.308;2023-02-04T09:27:34;15.17;;;5.10;;
12556;SDS011;6344;49.932;8.308;2023-02-04T09:30:02;13.17;;;5.13;;
12556;SDS011;6344;49.932;8.308;2023-02-04T09:32:29;18.70;;;6.80;;
12556;SDS011;6344;49.932;8.308;2023-02-04T09:34:56;9.37;;;5.80;;
12556;SDS011;6344;49.932;8.308;2023-02-04T09:37:22;17.73;;;7.33;;
12556;SDS011;6344;49.932;8.308;2023-02-04T09:39:50;14.70;;;6.50;;
12556;SDS011;6344;49.932;8.308;2023-02-04T09:42:18;21.53;;;6.60;;
12556;SDS011;6344;49.932;8.308;2023-02-04T09:44:47;18.60;;;6.03;;
12556;SDS011;6344;49.932;8.308;2023-02-04T09:47:15;14.13;;;5.30;;
12556;SDS011;6344;49.932;8.308;2023-02-04T09:49:46;15.93;;;5.93;;
12556;SDS011;6344;49.932;8.308;2023-02-04T09:52:14;19.93;;;5.97;;
12556;SDS011;6344;49.932;8.308;2023-02-04T09:54:43;17.00;;;7.20;;
12556;SDS011;6344;49.932;8.308;2023-02-04T09:57:12;15.60;;;6.47;;
12556;SDS011;6344;49.932;8.308;2023-02-04T09:59:42;14.30;;;6.10;;
12556;SDS011;6344;49.932;8.308;2023-02-04T10:02:16;23.80;;;7.67;;
12556;SDS011;6344;49.932;8.308;2023-02-04T10:04:47;13.00;;;5.60;;
12556;SDS011;6344;49.932;8.308;2023-02-04T10:07:14;11.83;;;4.93;;
12556;SDS011;6344;49.932;8.308;2023-02-04T10:09:46;16.13;;;5.50;;
12556;SDS011;6344;49.932;8.308;2023-02-04T10:12:13;17.33;;;5.80;;
12556;SDS011;6344;49.932;8.308;2023-02-04T10:14:40;16.00;;;5.50;;
12556;SDS011;6344;49.932;8.308;2023-02-04T10:17:07;13.23;;;4.57;;
12556;SDS011;6344;49.932;8.308;2023-02-04T10:19:37;16.03;;;5.87;;
12556;SDS011;6344;49.932;8.308;2023-02-04T10:22:06;12.50;;;4.97;;
12556;SDS011;6344;49.932;8.308;2023-02-04T10:24:41;10.93;;;4.17;;
12556;SDS011;6344;49.932;8.308;2023-02-04T10:27:09;12.67;;;4.27;;
12556;SDS011;6344;49.932;8.308;2023-02-04T10:29:36;11.50;;;3.50;;
12556;SDS011;6344;49.932;8.308;2023-02-04T10:34:55;10.47;;;3.80;;
12556;SDS011;6344;49.932;8.308;2023-02-04T10:37:22;8.43;;;4.33;;
12556;SDS011;6344;49.932;8.308;2023-02-04T10:39:49;13.43;;;4.57;;
12556;SDS011;6344;49.932;8.308;2023-02-04T10:42:19;12.33;;;4.20;;
12556;SDS011;6344;49.932;8.308;2023-02-04T10:44:47;9.00;;;4.00;;
12556;SDS011;6344;49.932;8.308;2023-02-04T10:47:15;15.87;;;4.97;;
12556;SDS011;6344;49.932;8.308;2023-02-04T10:49:51;16.17;;;5.03;;
12556;SDS011;6344;49.932;8.308;2023-02-04T10:52:25;14.83;;;5.20;;
12556;SDS011;6344;49.932;8.308;2023-02-04T10:54:59;7.77;;;4.50;;
12556;SDS011;6344;49.932;8.308;2023-02-04T10:57:28;13.93;;;4.97;;
12556;SDS011;6344;49.932;8.308;2023-02-04T10:59:57;9.50;;;4.47;;
12556;SDS011;6344;49.932;8.308;2023-02-04T11:02:30;14.63;;;5.10;;
12556;SDS011;6344;49.932;8.308;2023-02-04T11:05:10;14.30;;;5.47;;
12556;SDS011;6344;49.932;8.308;2023-02-04T11:07:40;7.93;;;4.40;;
12556;SDS011;6344;49.932;8.308;2023-02-04T11:10:09;14.17;;;3.93;;
12556;SDS011;6344;49.932;8.308;2023-02-04T11:12:39;12.80;;;5.37;;
12556;SDS011;6344;49.932;8.308;2023-02-04T11:18:02;14.53;;;4.90;;
12556;SDS011;6344;49.932;8.308;2023-02-04T11:20:32;13.77;;;5.20;;
12556;SDS011;6344;49.932;8.308;2023-02-04T11:23:27;9.40;;;4.27;;
12556;SDS011;6344;49.932;8.308;2023-02-04T11:26:00;10.37;;;4.60;;
12556;SDS011;6344;49.932;8.308;2023-02-04T11:28:27;17.10;;;5.40;;
12556;SDS011;6344;49.932;8.308;2023-02-04T11:31:26;11.67;;;4.27;;
12556;SDS011;6344;49.932;8.308;2023-02-04T11:34:09;10.87;;;4.20;;
12556;SDS011;6344;49.932;8.308;2023-02-04T11:36:54;13.40;;;5.37;;
12556;SDS011;6344;49.932;8.308;2023-02-04T11:39:31;8.43;;;3.20;;
12556;SDS011;6344;49.932;8.308;2023-02-04T11:42:00;11.23;;;3.70;;
12556;SDS011;6344;49.932;8.308;2023-02-04T11:44:28;9.20;;;3.57;;
12556;SDS011;6344;49.932;8.308;2023-02-04T11:47:06;10.03;;;3.60;;
12556;SDS011;6344;49.932;8.308;2023-02-04T11:49:34;9.87;;;3.83;;
12556;SDS011;6344;49.932;8.308;2023-02-04T11:52:02;13.63;;;5.00;;
12556;SDS011;6344;49.932;8.308;2023-02-04T11:54:32;17.77;;;5.13;;
12556;SDS011;6344;49.932;8.308;2023-02-04T11:56:59;11.67;;;4.63;;
12556;SDS011;6344;49.932;8.308;2023-02-04T11:59:26;7.80;;;3.33;;
12556;SDS011;6344;49.932;8.308;2023-02-04T12:02:03;8.37;;;5.03;;
12556;SDS011;6344;49.932;8.308;2023-02-04T12:04:31;11.70;;;7.53;;
12556;SDS011;6344;49.932;8.308;2023-02-04T12:06:58;6.37;;;3.20;;
12556;SDS011;6344;49.932;8.308;2023-02-04T12:09:26;8.63;;;4.00;;
12556;SDS011;6344;49.932;8.308;2023-02-04T12:11:55;10.53;;;4.00;;
12556;SDS011;6344;49.932;8.308;2023-02-04T12:14:27;12.33;;;3.87;;
12556;SDS011;6344;49.932;8.308;2023-02-04T12:16:56;8.07;;;3.70;;
12556;SDS011;6344;49.932;8.308;2023-02-04T12:19:24;7.30;;;4.00;;
12556;SDS011;6344;49.932;8.308;2023-02-04T12:21:51;7.33;;;3.90;;
12556;SDS011;6344;49.932;8.308;2023-02-04T12:24:18;10.47;;;4.57;;
12556;SDS011;6344;49.932;8.308;2023-02-04T12:26:45;6.47;;;3.50;;
12556;SDS011;6344;49.932;8.308;2023-02-04T12:29:12;10.70;;;4.87;;
12556;SDS011;6344;49.932;8.308;2023-02-04T12:31:38;7.93;;;2.70;;
12556;SDS011;6344;49.932;8.308;2023-02-04T12:34:05;12.30;;;3.97;;
12556;SDS011;6344;49.932;8.308;2023-02-04T12:36:33;8.07;;;2.93;;
12556;SDS011;6344;49.932;8.308;2023-02-04T12:39:00;7.83;;;3.53;;
12556;SDS011;6344;49.932;8.308;2023-02-04T12:41:27;7.63;;;3.50;;
12556;SDS011;6344;49.932;8.308;2023-02-04T12:43:53;8.10;;;2.73;;
12556;SDS011;6344;49.932;8.308;2023-02-04T12:46:20;9.10;;;4.07;;
12556;SDS011;6344;49.932;8.308;2023-02-04T12:48:47;7.43;;;3.40;;
12556;SDS011;6344;49.932;8.308;2023-02-04T12:51:13;10.43;;;3.60;;
12556;SDS011;6344;49.932;8.308;2023-02-04T12:53:41;7.73;;;3.60;;
12556;SDS011;6344;49.932;8.308;2023-02-04T12:56:08;8.90;;;3.47;;
12556;SDS011;6344;49.932;8.308;2023-02-04T12:58:35;10.70;;;4.20;;
12556;SDS011;6344;49.932;8.308;2023-02-04T13:01:01;12.83;;;4.47;;
12556;SDS011;6344;49.932;8.308;2023-02-04T13:03:28;9.13;;;3.37;;
12556;SDS011;6344;49.932;8.308;2023-02-04T13:05:55;8.50;;;3.50;;
12556;SDS011;6344;49.932;8.308;2023-02-04T13:08:21;9.13;;;4.00;;
12556;SDS011;6344;49.932;8.308;2023-02-04T13:10:49;10.70;;;3.73;;
12556;SDS011;6344;49.932;8.308;2023-02-04T13:13:16;7.63;;;2.97;;
12556;SDS011;6344;49.932;8.308;2023-02-04T13:15:44;8.33;;;3.40;;
12556;SDS011;6344;49.932;8.308;2023-02-04T13:18:10;9.20;;;3.27;;
12556;SDS011;6344;49.932;8.308;2023-02-04T13:20:37;9.33;;;3.30;;
12556;SDS011;6344;49.932;8.308;2023-02-04T13:23:04;13.10;;;4.13;;
12556;SDS011;6344;49.932;8.308;2023-02-04T13:25:30;11.17;;;4.10;;
12556;SDS011;6344;49.932;8.308;2023-02-04T13:27:58;6.90;;;3.20;;
12556;SDS011;6344;49.932;8.308;2023-02-04T13:30:25;14.23;;;9.03;;
12556;SDS011;6344;49.932;8.308;2023-02-04T13:32:52;14.03;;;7.53;;
12556;SDS011;6344;49.932;8.308;2023-02-04T13:35:18;10.13;;;4.00;;
12556;SDS011;6344;49.932;8.308;2023-02-04T13:37:45;8.90;;;4.27;;
12556;SDS011;6344;49.932;8.308;2023-02-04T13:40:12;10.63;;;4.33;;
12556;SDS011;6344;49.932;8.308;2023-02-04T13:42:38;9.27;;;4.30;;
12556;SDS011;6344;49.932;8.308;2023-02-04T13:45:08;12.47;;;5.00;;
12556;SDS011;6344;49.932;8.308;2023-02-04T13:47:36;10.87;;;3.67;;
12556;SDS011;6344;49.932;8.308;2023-02-04T13:50:03;8.20;;;3.40;;
12556;SDS011;6344;49.932;8.308;2023-02-04T13:52:30;9.13;;;4.30;;
12556;SDS011;6344;49.932;8.308;2023-02-04T13:54:58;12.00;;;3.70;;
12556;SDS011;6344;49.932;8.308;2023-02-04T13:57:25;8.80;;;4.37;;
12556;SDS011;6344;49.932;8.308;2023-02-04T13:59:52;13.30;;;3.80;;
12556;SDS011;6344;49.932;8.308;2023-02-04T14:02:20;7.50;;;3.00;;
12556;SDS011;6344;49.932;8.308;2023-02-04T14:04:47;10.13;;;3.67;;
12556;SDS011;6344;49.932;8.308;2023-02-04T14:07:14;7.50;;;3.77;;
12556;SDS011;6344;49.932;8.308;2023-02-04T14:09:41;10.13;;;4.60;;
12556;SDS011;6344;49.932;8.308;2023-02-04T14:12:07;6.20;;;3.40;;
12556;SDS011;6344;49.932;8.308;2023-02-04T14:14:34;11.00;;;4.83;;
12556;SDS011;6344;49.932;8.308;2023-02-04T14:17:01;10.73;;;4.30;;
12556;SDS011;6344;49.932;8.308;2023-02-04T14:19:29;10.47;;;3.50;;
12556;SDS011;6344;49.932;8.308;2023-02-04T14:21:56;11.87;;;4.37;;
12556;SDS011;6344;49.932;8.308;2023-02-04T14:24:23;10.17;;;4.27;;
12556;SDS011;6344;49.932;8.308;2023-02-04T14:26:50;7.70;;;3.80;;
12556;SDS011;6344;49.932;8.308;2023-02-04T14:29:16;10.90;;;4.47;;
12556;SDS011;6344;49.932;8.308;2023-02-04T14:31:43;14.27;;;4.50;;
12556;SDS011;6344;49.932;8.308;2023-02-04T14:34:10;8.27;;;4.00;;
12556;SDS011;6344;49.932;8.308;2023-02-04T14:36:38;6.30;;;3.70;;
12556;SDS011;6344;49.932;8.308;2023-02-04T14:39:05;7.23;;;3.20;;
12556;SDS011;6344;49.932;8.308;2023-02-04T14:41:32;6.93;;;3.93;;
12556;SDS011;6344;49.932;8.308;2023-02-04T14:43:58;6.73;;;3.50;;
12556;SDS011;6344;49.932;8.308;2023-02-04T14:46:25;12.30;;;3.93;;
12556;SDS011;6344;49.932;8.308;2023-02-04T14:48:51;7.90;;;3.10;;
12556;SDS011;6344;49.932;8.308;2023-02-04T14:51:18;7.93;;;3.90;;
12556;SDS011;6344;49.932;8.308;2023-02-04T14:53:46;8.13;;;3.53;;
12556;SDS011;6344;49.932;8.308;2023-02-04T14:56:13;8.40;;;3.73;;
12556;SDS011;6344;49.932;8.308;2023-02-04T14:58:40;8.67;;;4.20;;
12556;SDS011;6344;49.932;8.308;2023-02-04T15:01:06;11.73;;;4.37;;
12556;SDS011;6344;49.932;8.308;2023-02-04T15:03:33;12.10;;;4.60;;
12556;SDS011;6344;49.932;8.308;2023-02-04T15:06:00;6.80;;;3.87;;
12556;SDS011;6344;49.932;8.308;2023-02-04T15:08:26;11.17;;;4.03;;